CDT,Max TemperatureF,Mean TemperatureF,Min TemperatureF,Max Dew PointF,MeanDew PointF,Min DewpointF,Max Humidity, Mean Humidity, Min Humidity, Max Sea Level PressureIn, Mean Sea Level PressureIn, Min Sea Level PressureIn, Max VisibilityMiles, Mean VisibilityMiles, Min VisibilityMiles, Max Wind SpeedMPH, Mean Wind SpeedMPH, Max Gust SpeedMPH,PrecipitationIn, CloudCover, Events, WindDirDegrees
2012-10-1,77,69,61,61,59,57,93,75,57,29.81,29.69,29.63,10,9,2,20,8,23,T,7,Rain,312
2012-10-2,83,70,57,62,57,52,97,67,36,29.98,29.87,29.81,10,7,1,8,2,10,0.00,1,,239
2012-10-3,85,75,64,66,62,56,90,65,40,30.11,30.03,29.98,10,10,9,15,4,21,0.01,1,Rain-Thunderstorm,148
2012-10-4,88,77,65,70,65,61,93,68,43,30.21,30.15,30.11,10,8,2,13,4,17,0.00,0,,100
2012-10-5,88,77,66,72,66,62,93,69,45,30.16,30.10,30.01,10,6,0,8,2,15,0.00,1,Fog,342
2012-10-6,85,72,59,70,64,55,93,74,55,30.06,30.02,29.97,10,9,5,22,7,25,0.00,1,,3
2012-10-7,69,62,55,54,52,50,86,72,57,30.16,30.11,30.05,10,10,10,22,13,25,0.00,4,,17
2012-10-8,72,63,53,52,50,46,93,69,44,30.20,30.14,30.09,10,10,10,15,9,20,0.00,3,,15
2012-10-9,80,66,51,59,54,48,90,68,45,30.16,30.09,30.01,10,10,10,9,2,12,0.00,0,,49
2012-10-10,88,74,60,69,64,58,90,68,46,30.18,30.12,30.06,10,10,5,12,3,15,0.00,2,,73
2012-10-11,88,76,64,67,64,59,93,66,39,30.23,30.17,30.14,10,6,0,13,4,17,0.00,2,Fog,111
2012-10-12,86,73,60,70,63,59,100,76,51,30.24,30.18,30.17,10,5,0,9,4,13,0.00,1,Fog,106
2012-10-13,87,76,65,71,66,64,97,74,51,30.20,30.16,30.08,10,4,0,18,8,28,0.00,2,Fog,135
2012-10-14,86,78,69,74,71,68,93,77,61,30.13,30.04,30.00,10,5,0,14,5,20,0.03,2,Fog,174
2012-10-15,84,74,64,72,66,55,93,68,43,30.05,30.00,29.94,10,7,0,15,7,18,0.25,3,Fog-Rain-Thunderstorm,356
2012-10-16,83,71,59,65,60,54,84,65,46,29.99,29.91,29.84,10,10,10,12,5,16,T,0,,109
2012-10-17,85,75,64,74,68,62,94,75,55,29.85,29.79,29.72,10,10,8,21,8,25,0.00,4,Rain,172
2012-10-18,84,73,61,75,62,42,94,60,26,29.94,29.82,29.73,10,9,2,21,9,26,0.20,4,Rain-Thunderstorm,359
2012-10-19,81,67,53,52,45,35,86,53,20,30.01,29.95,29.91,10,10,6,15,4,18,0.00,0,,306
2012-10-20,84,67,50,54,48,39,89,55,20,30.02,29.97,29.94,10,10,4,12,3,14,0.00,0,,151
2012-10-21,85,71,57,63,58,52,93,63,32,30.09,30.04,29.98,10,10,10,15,7,18,0.00,0,,141
2012-10-22,86,74,61,65,62,59,93,69,44,30.12,30.06,30.02,10,10,10,14,6,18,0.00,0,,122
2012-10-23,87,76,64,67,64,61,93,68,43,30.07,30.03,29.99,10,9,5,12,5,15,0.00,1,,116
2012-10-24,87,77,67,69,66,62,97,70,43,30.07,30.01,29.96,10,9,6,13,5,16,0.00,2,,107
2012-10-25,87,76,65,68,64,59,93,66,39,29.99,29.95,29.91,10,8,2,15,5,22,0.00,0,,129
2012-10-26,85,74,63,72,63,47,100,74,48,30.09,29.99,29.94,10,6,0,21,5,25,0.00,5,Fog,2
2012-10-27,66,57,48,46,43,39,77,60,43,30.12,30.07,30.00,10,10,10,23,14,31,0.00,2,,359
2012-10-28,68,55,41,39,35,29,82,53,24,30.19,30.14,30.08,10,10,10,23,10,30,0.00,0,,349
2012-10-29,68,55,41,39,35,30,76,51,26,30.26,30.19,30.12,10,10,10,21,9,26,0.00,0,,357
2012-10-30,72,56,39,45,38,30,92,57,22,30.16,30.10,30.02,10,10,10,13,3,16,0.00,0,,258
2012-10-31,81,65,49,61,53,45,97,68,39,30.08,30.03,29.96,10,9,1,14,5,20,0.00,0,,236